GAS EGLL-EGGD
Flight info
| Callsign | GAS |
|---|---|
| Flight time | 0h 24m |
| Altitude | 18000 |
| Route | CPT Q63 SAWPE |
| Aircraft | C700/M-SBDGHM1RWXY/LB2 |
Departure
| Time | 2026-05-05 01:35 |
|---|---|
| Airport | London Heathrow Airport (EGLL) |
Arrival
| Time | 2026-05-05 02:00 |
|---|---|
| Airport | Bristol Airport (EGGD) |
| Time | Latitude | Longitude | Altitude | Speed | Heading |
|---|---|---|---|---|---|
| 2026-05-05 01:24 | 51.46186 | -0.47415 | 80 ft | 0 kts | 243° |
| 2026-05-05 01:29 | 51.46189 | -0.47404 | 80 ft | 2 kts | 243° |
| 2026-05-05 01:30 | 51.46198 | -0.47376 | 84 ft | 3 kts | 242° |
| 2026-05-05 01:30 | 51.46207 | -0.47347 | 84 ft | 3 kts | 242° |
| 2026-05-05 01:30 | 51.46217 | -0.47319 | 80 ft | 3 kts | 238° |
| 2026-05-05 01:30 | 51.46228 | -0.47293 | 80 ft | 3 kts | 226° |
| 2026-05-05 01:31 | 51.46243 | -0.47272 | 82 ft | 3 kts | 205° |
| 2026-05-05 01:31 | 51.46258 | -0.47265 | 80 ft | 1 kts | 179° |
| 2026-05-05 01:31 | 51.46264 | -0.47265 | 80 ft | 0 kts | 179° |
| 2026-05-05 01:33 | 51.46259 | -0.47282 | 82 ft | 4 kts | 281° |
| 2026-05-05 01:33 | 51.46303 | -0.47283 | 80 ft | 10 kts | 341° |
| 2026-05-05 01:34 | 51.46339 | -0.47432 | 80 ft | 20 kts | 284° |
| 2026-05-05 01:34 | 51.46439 | -0.47493 | 75 ft | 16 kts | 358° |
| 2026-05-05 01:34 | 51.46480 | -0.47482 | 69 ft | 2 kts | 61° |
| 2026-05-05 01:34 | 51.46483 | -0.47357 | 77 ft | 42 kts | 90° |
| 2026-05-05 01:35 | 51.46490 | -0.46340 | 83 ft | 137 kts | 87° |
| 2026-05-05 01:35 | 51.46502 | -0.44505 | 521 ft | 183 kts | 88° |
| 2026-05-05 01:35 | 51.46522 | -0.42348 | 1624 ft | 208 kts | 84° |
| 2026-05-05 01:35 | 51.46910 | -0.39910 | 2332 ft | 254 kts | 75° |
| 2026-05-05 01:36 | 51.46838 | -0.36952 | 3364 ft | 288 kts | 107° |
| 2026-05-05 01:36 | 51.45414 | -0.34452 | 3970 ft | 326 kts | 154° |
| 2026-05-05 01:36 | 51.43292 | -0.34108 | 5478 ft | 295 kts | 194° |
| 2026-05-05 01:36 | 51.41528 | -0.35609 | 6555 ft | 291 kts | 224° |
| 2026-05-05 01:37 | 51.40437 | -0.38302 | 7387 ft | 289 kts | 251° |
| 2026-05-05 01:37 | 51.40096 | -0.41463 | 8351 ft | 289 kts | 266° |
| 2026-05-05 01:37 | 51.40197 | -0.44726 | 9103 ft | 301 kts | 278° |
| 2026-05-05 01:37 | 51.40631 | -0.48026 | 9981 ft | 302 kts | 283° |
| 2026-05-05 01:38 | 51.41118 | -0.51212 | 10749 ft | 303 kts | 282° |
| 2026-05-05 01:38 | 51.41538 | -0.54641 | 11580 ft | 321 kts | 279° |
| 2026-05-05 01:38 | 51.41882 | -0.58193 | 12423 ft | 324 kts | 278° |
| 2026-05-05 01:38 | 51.42251 | -0.61775 | 13282 ft | 327 kts | 279° |
| 2026-05-05 01:39 | 51.42662 | -0.65412 | 14124 ft | 336 kts | 280° |
| 2026-05-05 01:39 | 51.43077 | -0.69124 | 14917 ft | 342 kts | 279° |
| 2026-05-05 01:39 | 51.43480 | -0.72889 | 15733 ft | 343 kts | 279° |
| 2026-05-05 01:39 | 51.43919 | -0.76672 | 16529 ft | 349 kts | 282° |
| 2026-05-05 01:40 | 51.44403 | -0.80522 | 16831 ft | 362 kts | 281° |
| 2026-05-05 01:40 | 51.44872 | -0.84506 | 17018 ft | 356 kts | 280° |
| 2026-05-05 01:40 | 51.45327 | -0.88330 | 17193 ft | 352 kts | 281° |
| 2026-05-05 01:40 | 51.45786 | -0.92195 | 17376 ft | 354 kts | 280° |
| 2026-05-05 01:41 | 51.46228 | -0.96096 | 17566 ft | 357 kts | 280° |
| 2026-05-05 01:41 | 51.46668 | -1.00013 | 17757 ft | 359 kts | 280° |
| 2026-05-05 01:41 | 51.47120 | -1.03960 | 17947 ft | 360 kts | 280° |
| 2026-05-05 01:41 | 51.47584 | -1.08009 | 18019 ft | 384 kts | 280° |
| 2026-05-05 01:42 | 51.48081 | -1.12395 | 18028 ft | 414 kts | 280° |
| 2026-05-05 01:42 | 51.48592 | -1.16958 | 18029 ft | 425 kts | 280° |
| 2026-05-05 01:42 | 51.49141 | -1.21599 | 18023 ft | 422 kts | 283° |
| 2026-05-05 01:42 | 51.50046 | -1.26075 | 18014 ft | 421 kts | 290° |
| 2026-05-05 01:43 | 51.51020 | -1.30506 | 18018 ft | 421 kts | 289° |
| 2026-05-05 01:43 | 51.51958 | -1.34946 | 18018 ft | 420 kts | 288° |
| 2026-05-05 01:43 | 51.52902 | -1.39393 | 18018 ft | 421 kts | 289° |
| 2026-05-05 01:43 | 51.53862 | -1.43839 | 18017 ft | 421 kts | 289° |
| 2026-05-05 01:44 | 51.54821 | -1.48292 | 18017 ft | 422 kts | 289° |
| 2026-05-05 01:44 | 51.55770 | -1.52760 | 18018 ft | 423 kts | 289° |
| 2026-05-05 01:44 | 51.56705 | -1.57173 | 18029 ft | 423 kts | 288° |
| 2026-05-05 01:44 | 51.57651 | -1.61623 | 18028 ft | 419 kts | 288° |
| 2026-05-05 01:45 | 51.58473 | -1.66100 | 18015 ft | 418 kts | 281° |
| 2026-05-05 01:45 | 51.58853 | -1.70733 | 18022 ft | 418 kts | 276° |
| 2026-05-05 01:45 | 51.59186 | -1.75388 | 18025 ft | 418 kts | 276° |
| 2026-05-05 01:45 | 51.59524 | -1.79939 | 18021 ft | 401 kts | 276° |
| 2026-05-05 01:46 | 51.59708 | -1.84326 | 18014 ft | 389 kts | 268° |
| 2026-05-05 01:46 | 51.59396 | -1.88641 | 17923 ft | 392 kts | 258° |
| 2026-05-05 01:46 | 51.58590 | -1.92788 | 17438 ft | 391 kts | 246° |
| 2026-05-05 01:46 | 51.57342 | -1.96573 | 16934 ft | 374 kts | 236° |
| 2026-05-05 01:47 | 51.55961 | -1.99990 | 16456 ft | 355 kts | 236° |
| 2026-05-05 01:47 | 51.54653 | -2.03255 | 16007 ft | 340 kts | 236° |
| 2026-05-05 01:47 | 51.53404 | -2.06396 | 15572 ft | 327 kts | 236° |
| 2026-05-05 01:47 | 51.52377 | -2.09578 | 15146 ft | 318 kts | 248° |
| 2026-05-05 01:48 | 51.51648 | -2.12877 | 14741 ft | 310 kts | 249° |
| 2026-05-05 01:48 | 51.50914 | -2.16104 | 14341 ft | 306 kts | 249° |
| 2026-05-05 01:48 | 51.50181 | -2.19301 | 13946 ft | 305 kts | 249° |
| 2026-05-05 01:48 | 51.49464 | -2.22461 | 13533 ft | 305 kts | 249° |
| 2026-05-05 01:49 | 51.48741 | -2.25661 | 13107 ft | 305 kts | 249° |
| 2026-05-05 01:49 | 51.48017 | -2.28844 | 12695 ft | 303 kts | 249° |
| 2026-05-05 01:49 | 51.47296 | -2.32002 | 12287 ft | 300 kts | 249° |
| 2026-05-05 01:49 | 51.43676 | -2.47823 | 10283 ft | 277 kts | 250° |
| 2026-05-05 01:50 | 51.41595 | -2.56826 | 8978 ft | 260 kts | 250° |
| 2026-05-05 01:50 | 51.41324 | -2.58002 | 8804 ft | 259 kts | 250° |
| 2026-05-05 01:50 | 51.40930 | -2.59723 | 8551 ft | 257 kts | 250° |
| 2026-05-05 01:50 | 51.40316 | -2.62387 | 8035 ft | 257 kts | 250° |
| 2026-05-05 01:51 | 51.39695 | -2.65069 | 7805 ft | 249 kts | 250° |
| 2026-05-05 01:51 | 51.39107 | -2.67598 | 7393 ft | 248 kts | 251° |
| 2026-05-05 01:51 | 51.38537 | -2.70285 | 6619 ft | 261 kts | 258° |
| 2026-05-05 01:51 | 51.38414 | -2.73217 | 5843 ft | 269 kts | 275° |
| 2026-05-05 01:52 | 51.38769 | -2.76186 | 5062 ft | 274 kts | 285° |
| 2026-05-05 01:52 | 51.39217 | -2.79179 | 4273 ft | 274 kts | 284° |
| 2026-05-05 01:52 | 51.39618 | -2.82003 | 3489 ft | 249 kts | 284° |
| 2026-05-05 01:52 | 51.39983 | -2.84584 | 3030 ft | 222 kts | 285° |
| 2026-05-05 01:53 | 51.40298 | -2.86817 | 3004 ft | 191 kts | 285° |
| 2026-05-05 01:53 | 51.40586 | -2.88805 | 3006 ft | 180 kts | 285° |
| 2026-05-05 01:53 | 51.40854 | -2.90690 | 3009 ft | 168 kts | 285° |
| 2026-05-05 01:53 | 51.41106 | -2.92454 | 3011 ft | 158 kts | 285° |
| 2026-05-05 01:54 | 51.41347 | -2.94150 | 3014 ft | 156 kts | 284° |
| 2026-05-05 01:54 | 51.41301 | -2.95875 | 3019 ft | 160 kts | 250° |
| 2026-05-05 01:54 | 51.40662 | -2.97344 | 3031 ft | 165 kts | 218° |
| 2026-05-05 01:54 | 51.39626 | -2.98045 | 3042 ft | 159 kts | 185° |
| 2026-05-05 01:55 | 51.38525 | -2.97782 | 2773 ft | 164 kts | 151° |
| 2026-05-05 01:55 | 51.37676 | -2.96611 | 2545 ft | 162 kts | 118° |
| 2026-05-05 01:55 | 51.37353 | -2.94979 | 2512 ft | 149 kts | 89° |
| 2026-05-05 01:55 | 51.37428 | -2.93400 | 2513 ft | 139 kts | 82° |
| 2026-05-05 01:56 | 51.37477 | -2.91904 | 2496 ft | 133 kts | 85° |
| 2026-05-05 01:56 | 51.37504 | -2.90471 | 2498 ft | 125 kts | 85° |
| 2026-05-05 01:56 | 51.37550 | -2.89131 | 2496 ft | 117 kts | 81° |
| 2026-05-05 01:56 | 51.37630 | -2.87850 | 2503 ft | 114 kts | 83° |
| 2026-05-05 01:57 | 51.37686 | -2.86607 | 2391 ft | 117 kts | 80° |
| 2026-05-05 01:57 | 51.37750 | -2.85283 | 2187 ft | 121 kts | 85° |
| 2026-05-05 01:57 | 51.37793 | -2.83972 | 1996 ft | 115 kts | 83° |
| 2026-05-05 01:57 | 51.37836 | -2.82698 | 1841 ft | 115 kts | 83° |
| 2026-05-05 01:58 | 51.37908 | -2.81421 | 1699 ft | 118 kts | 82° |
| 2026-05-05 01:58 | 51.37941 | -2.80127 | 1510 ft | 115 kts | 84° |
| 2026-05-05 01:58 | 51.37996 | -2.78867 | 1358 ft | 114 kts | 83° |
| 2026-05-05 01:58 | 51.38047 | -2.77583 | 1194 ft | 117 kts | 84° |
| 2026-05-05 01:59 | 51.38090 | -2.76277 | 1011 ft | 118 kts | 84° |
| 2026-05-05 01:59 | 51.38148 | -2.74970 | 846 ft | 117 kts | 84° |
| 2026-05-05 01:59 | 51.38204 | -2.73704 | 693 ft | 113 kts | 85° |
| 2026-05-05 01:59 | 51.38243 | -2.72510 | 608 ft | 94 kts | 84° |
| 2026-05-05 02:00 | 51.38278 | -2.71693 | 610 ft | 57 kts | 87° |
| 2026-05-05 02:00 | 51.38329 | -2.71464 | 608 ft | 14 kts | 333° |
| 2026-05-05 02:00 | 51.38403 | -2.71538 | 613 ft | 0 kts | 327° |